createdAt,value
2019-05-29T00:03:06.264Z,98472.52
2019-05-29T00:08:10.392Z,98477.56
2019-05-29T00:13:14.506Z,98479.48
2019-05-29T00:18:18.801Z,98489.94
2019-05-29T00:23:21.910Z,98489.98
2019-05-29T00:28:25.195Z,98494.20
2019-05-29T00:33:28.295Z,98494.78
2019-05-29T00:38:31.392Z,98497.42
2019-05-29T00:43:34.678Z,98501.47
2019-05-29T00:48:37.802Z,98504.38
2019-05-29T00:53:40.943Z,98514.77
2019-05-29T00:58:44.019Z,98519.59
2019-05-29T01:03:47.185Z,98530.77
2019-05-29T01:08:50.911Z,98528.08
2019-05-29T01:13:53.976Z,98539.03
2019-05-29T01:19:16.549Z,98542.77
2019-05-29T01:24:20.636Z,98543.81
2019-05-29T01:29:25.319Z,98546.50
2019-05-29T01:34:29.792Z,98542.77
2019-05-29T01:39:34.165Z,98544.39
2019-05-29T01:44:37.376Z,98552.70
2019-05-29T01:49:43.269Z,98541.47
2019-05-29T01:54:47.475Z,98550.55
2019-05-29T01:59:50.697Z,98554.58
2019-05-29T02:04:53.867Z,98564.19
2019-05-29T02:09:59.277Z,98561.52
2019-05-29T02:15:04.302Z,98575.37
2019-05-29T02:20:08.300Z,98584.18
2019-05-29T02:25:11.870Z,98589.51
2019-05-29T02:30:15.160Z,98602.86
2019-05-29T02:35:20.075Z,98609.78
2019-05-29T02:40:27.540Z,98615.63
2019-05-29T02:45:50.275Z,98625.50
2019-05-29T02:50:34.605Z,98628.95
2019-05-29T02:55:37.681Z,98634.56
2019-05-29T03:00:55.937Z,98636.14
2019-05-29T03:05:59.000Z,98636.14
2019-05-29T03:11:02.131Z,98642.27
2019-05-29T03:16:11.208Z,98647.89
2019-05-29T03:21:10.255Z,98651.09
2019-05-29T03:26:13.352Z,98662.27
2019-05-29T03:31:16.506Z,98666.26
2019-05-29T03:36:19.761Z,98665.45
2019-05-29T03:41:24.286Z,98680.85
2019-05-29T03:46:35.508Z,98693.64
2019-05-29T03:51:34.647Z,98698.44
2019-05-29T03:56:38.900Z,98709.06
2019-05-29T04:01:42.110Z,98717.31
2019-05-29T04:06:47.418Z,98727.97
2019-05-29T04:11:52.327Z,98740.26
2019-05-29T04:17:00.276Z,98744.82
2019-05-29T04:22:10.196Z,98754.11
2019-05-29T04:27:16.927Z,98768.50
2019-05-29T04:32:21.942Z,98780.45
2019-05-29T04:37:26.493Z,98788.73
2019-05-29T04:42:31.966Z,98798.01
2019-05-29T04:47:35.193Z,98808.34
2019-05-29T04:52:43.421Z,98826.00
2019-05-29T04:57:50.525Z,98847.37
2019-05-29T05:02:51.749Z,98859.80
2019-05-29T05:07:54.936Z,98863.14
2019-05-29T05:12:58.102Z,98872.88
2019-05-29T05:18:04.025Z,98879.33
2019-05-29T05:23:07.179Z,98886.47
2019-05-29T05:28:12.801Z,98899.75
2019-05-29T05:33:15.860Z,98905.70
2019-05-29T05:38:18.993Z,98923.54
2019-05-29T05:43:24.346Z,98927.40
2019-05-29T05:48:27.084Z,98937.16
2019-05-29T05:53:31.229Z,98946.42
2019-05-29T05:58:35.703Z,98958.38
2019-05-29T06:03:40.596Z,98964.13
2019-05-29T06:08:43.750Z,98968.72
2019-05-29T06:13:48.500Z,98980.09
2019-05-29T06:18:51.451Z,98992.09
2019-05-29T06:23:54.513Z,99000.06
2019-05-29T06:28:57.640Z,99016.28
2019-05-29T06:34:00.671Z,99027.80
2019-05-29T06:39:06.035Z,99046.64
2019-05-29T06:44:09.053Z,99049.75
2019-05-29T06:49:12.019Z,99064.44
2019-05-29T06:54:14.995Z,99079.84
2019-05-29T06:59:18.024Z,99088.95
2019-05-29T07:04:20.997Z,99094.99
2019-05-29T07:09:23.960Z,99109.97
2019-05-29T07:14:28.426Z,99106.66
2019-05-29T07:19:47.650Z,99115.38
2019-05-29T07:24:37.041Z,99122.94
2019-05-29T07:29:41.114Z,99127.84
2019-05-29T07:34:57.839Z,99132.88
2019-05-29T07:39:49.469Z,99140.59
2019-05-29T07:44:52.543Z,99155.64
2019-05-29T07:49:55.626Z,99163.17
2019-05-29T07:54:58.855Z,99168.52
2019-05-29T08:00:03.351Z,99173.81
2019-05-29T08:05:09.870Z,99176.83
2019-05-29T08:10:13.188Z,99186.06
2019-05-29T08:15:16.361Z,99189.52
2019-05-29T08:20:19.803Z,99197.67
2019-05-29T08:25:22.899Z,99203.13
2019-05-29T08:30:25.983Z,99207.01
2019-05-29T08:35:29.156Z,99220.38
2019-05-29T08:40:32.937Z,99222.81
2019-05-29T08:45:36.066Z,99234.45
2019-05-29T08:50:39.153Z,99240.47
2019-05-29T08:55:42.337Z,99251.98
2019-05-29T09:00:49.767Z,99264.11
2019-05-29T09:06:04.961Z,99271.42
2019-05-29T09:10:55.989Z,99277.42
2019-05-29T09:15:59.052Z,99291.75
2019-05-29T09:21:03.952Z,99291.07
2019-05-29T09:26:15.996Z,99306.08
2019-05-29T09:31:15.007Z,99301.48
2019-05-29T09:36:18.633Z,99303.45
2019-05-29T09:41:23.537Z,99313.24
2019-05-29T09:46:26.911Z,99331.92
2019-05-29T09:51:30.081Z,99337.16
2019-05-29T09:56:33.183Z,99351.80
2019-05-29T10:01:36.365Z,99363.31
2019-05-29T10:06:39.699Z,99371.88
2019-05-29T10:11:42.791Z,99372.91
2019-05-29T10:16:45.934Z,99372.62
2019-05-29T10:21:48.960Z,99376.52
2019-05-29T10:26:52.050Z,99366.11
2019-05-29T10:31:55.371Z,99375.23
2019-05-29T10:36:58.457Z,99377.59
2019-05-29T10:42:01.759Z,99377.38
2019-05-29T10:47:05.030Z,99382.77
2019-05-29T10:52:15.700Z,99393.00
2019-05-29T10:57:13.250Z,99401.72
2019-05-29T11:02:16.307Z,99401.31
2019-05-29T11:07:19.464Z,99408.88
2019-05-29T11:12:22.558Z,99415.58
2019-05-29T11:17:26.750Z,99413.76
2019-05-29T11:22:29.869Z,99416.05
2019-05-29T11:27:32.996Z,99420.66
2019-05-29T11:32:36.134Z,99426.61
2019-05-29T11:37:39.211Z,99432.93
2019-05-29T11:42:42.305Z,99428.98
2019-05-29T11:47:45.393Z,99436.77
2019-05-29T11:52:48.423Z,99445.22
2019-05-29T11:57:51.861Z,99460.25
2019-05-29T12:02:55.854Z,99457.90
2019-05-29T12:07:59.602Z,99460.01
2019-05-29T12:13:02.898Z,99460.53
2019-05-29T12:18:23.178Z,99467.80
2019-05-29T12:23:24.743Z,99474.89
2019-05-29T12:28:16.038Z,99474.69
2019-05-29T12:33:19.512Z,99481.50
2019-05-29T12:38:22.600Z,99476.95
2019-05-29T12:43:27.724Z,99470.88
2019-05-29T12:48:30.714Z,99477.52
2019-05-29T12:53:33.801Z,99484.25
2019-05-29T12:58:36.889Z,99487.19
2019-05-29T13:03:40.007Z,99494.19
2019-05-29T13:08:44.411Z,99496.07
2019-05-29T13:13:48.034Z,99502.98
2019-05-29T13:18:51.172Z,99513.32
2019-05-29T13:23:54.334Z,99522.81
2019-05-29T13:28:57.625Z,99516.24
2019-05-29T13:34:01.797Z,99525.39
2019-05-29T13:39:07.446Z,99543.77
2019-05-29T13:44:10.544Z,99548.27
2019-05-29T13:49:13.924Z,99548.92
2019-05-29T13:54:18.291Z,99550.55
2019-05-29T13:59:23.255Z,99551.87
2019-05-29T14:04:26.418Z,99553.67
2019-05-29T14:09:29.573Z,99553.01
2019-05-29T14:14:32.689Z,99556.89
2019-05-29T14:19:35.763Z,99560.23
2019-05-29T14:24:38.854Z,99561.69
2019-05-29T14:29:41.939Z,99560.08
2019-05-29T14:34:45.108Z,99566.48
2019-05-29T14:39:48.203Z,99569.82
2019-05-29T14:44:51.320Z,99571.45
2019-05-29T14:49:54.699Z,99560.11
2019-05-29T14:54:57.883Z,99559.20
2019-05-29T15:00:02.069Z,99566.34
2019-05-29T15:05:07.674Z,99565.40
2019-05-29T15:10:24.047Z,99566.33
2019-05-29T15:15:17.456Z,99565.36
2019-05-29T15:20:22.386Z,99567.05
2019-05-29T15:25:25.480Z,99570.86
2019-05-29T15:30:28.555Z,99573.19
2019-05-29T15:35:31.539Z,99577.91
2019-05-29T15:40:34.646Z,99586.81
2019-05-29T15:45:37.847Z,99588.52
2019-05-29T15:50:41.080Z,99595.56
2019-05-29T15:55:44.140Z,99597.66
2019-05-29T16:00:47.796Z,99610.41
2019-05-29T16:05:51.060Z,99620.37
2019-05-29T16:10:54.203Z,99629.69
2019-05-29T16:15:57.189Z,99631.38
2019-05-29T16:21:00.367Z,99643.20
2019-05-29T16:26:04.127Z,99647.92
2019-05-29T16:31:07.248Z,99653.38
2019-05-29T16:36:10.214Z,99647.40
2019-05-29T16:41:13.783Z,99663.50
2019-05-29T16:46:19.264Z,99665.27
2019-05-29T16:51:23.070Z,99658.33
2019-05-29T16:56:26.150Z,99650.47
2019-05-29T17:01:29.208Z,99648.85
2019-05-29T17:06:32.260Z,99657.61
2019-05-29T17:11:35.521Z,99657.97
2019-05-29T17:16:38.918Z,99660.47
2019-05-29T17:21:42.374Z,99658.25
2019-05-29T17:26:45.449Z,99659.86
2019-05-29T17:31:48.424Z,99657.36
2019-05-29T17:36:51.590Z,99666.80
2019-05-29T17:41:54.632Z,99674.34
2019-05-29T17:46:57.726Z,99679.71
2019-05-29T17:52:00.827Z,99680.33
2019-05-29T17:57:04.197Z,99685.61
2019-05-29T18:02:07.781Z,99688.80
2019-05-29T18:07:10.773Z,99694.59
2019-05-29T18:12:13.910Z,99713.66
2019-05-29T18:17:17.454Z,99724.36
2019-05-29T18:22:21.609Z,99730.51
2019-05-29T18:27:25.983Z,99740.12
2019-05-29T18:32:29.343Z,99745.31
2019-05-29T18:37:32.539Z,99747.63
2019-05-29T18:42:36.118Z,99749.95
2019-05-29T18:47:39.130Z,99759.32
2019-05-29T18:52:42.685Z,99764.13
2019-05-29T18:57:46.880Z,99768.75
2019-05-29T19:02:49.944Z,99775.84
2019-05-29T19:07:53.071Z,99784.58
2019-05-29T19:12:56.240Z,99781.15
2019-05-29T19:17:59.195Z,99789.44
2019-05-29T19:23:02.356Z,99785.58
2019-05-29T19:28:05.671Z,99788.69
2019-05-29T19:33:08.855Z,99789.30
2019-05-29T19:38:11.962Z,99797.86
2019-05-29T19:43:15.304Z,99802.94
2019-05-29T19:48:18.545Z,99799.00
2019-05-29T19:53:25.264Z,99800.33
2019-05-29T19:58:28.036Z,99810.45
2019-05-29T20:03:36.574Z,99817.91
2019-05-29T20:14:07.944Z,99825.65
2019-05-29T20:19:33.849Z,99823.78
2019-05-29T20:24:58.267Z,99832.52
2019-05-29T20:30:01.492Z,99831.30
2019-05-29T20:35:05.026Z,99838.21
2019-05-29T20:40:08.845Z,99831.65
2019-05-29T20:45:14.447Z,99840.34
2019-05-29T20:50:17.985Z,99842.25
2019-05-29T20:55:23.057Z,99847.84
2019-05-29T21:00:26.152Z,99849.45
2019-05-29T21:05:29.331Z,99851.19
2019-05-29T21:10:33.110Z,99861.58
2019-05-29T21:15:37.576Z,99866.02
2019-05-29T21:20:40.895Z,99871.92
2019-05-29T21:25:44.971Z,99879.77
2019-05-29T21:30:48.558Z,99884.12
2019-05-29T21:35:51.652Z,99877.47
2019-05-29T21:40:54.766Z,99879.09
2019-05-29T21:45:57.858Z,99880.06
2019-05-29T21:51:01.058Z,99887.06
2019-05-29T21:56:04.209Z,99882.44
2019-05-29T22:01:07.309Z,99885.98
2019-05-29T22:06:10.312Z,99887.81
2019-05-29T22:11:15.456Z,99880.75
2019-05-29T22:16:18.545Z,99886.13
2019-05-29T22:21:21.662Z,99889.95
2019-05-29T22:26:24.754Z,99877.98
2019-05-29T22:31:27.839Z,99874.52
2019-05-29T22:36:30.976Z,99873.09
2019-05-29T22:41:34.049Z,99882.25
2019-05-29T22:46:39.469Z,99884.91
2019-05-29T22:51:42.552Z,99874.88
2019-05-29T22:56:47.850Z,99875.69
2019-05-29T23:01:52.022Z,99879.44
2019-05-29T23:06:56.338Z,99882.69
2019-05-29T23:12:00.442Z,99885.95
2019-05-29T23:17:03.680Z,99890.45
2019-05-29T23:22:06.755Z,99882.84
2019-05-29T23:27:09.790Z,99885.14
2019-05-29T23:32:12.861Z,99886.42
2019-05-29T23:37:15.924Z,99889.95
2019-05-29T23:42:19.009Z,99894.97
2019-05-29T23:47:22.069Z,99890.56
2019-05-29T23:52:25.260Z,99889.14
2019-05-29T23:57:28.790Z,99894.09
